sensor_id;sensor_type;location;lat;lon;timestamp;temperature;humidity
18974;DHT22;9621;48.690;9.466;2024-01-30T00:00:25;-2.50;99.90
18974;DHT22;9621;48.690;9.466;2024-01-30T00:02:52;-2.50;99.90
18974;DHT22;9621;48.690;9.466;2024-01-30T00:05:19;-2.30;99.90
18974;DHT22;9621;48.690;9.466;2024-01-30T00:07:45;-2.40;99.90
18974;DHT22;9621;48.690;9.466;2024-01-30T00:10:14;-1.60;99.90
18974;DHT22;9621;48.690;9.466;2024-01-30T00:12:41;-2.60;99.90
18974;DHT22;9621;48.690;9.466;2024-01-30T00:15:08;-2.60;99.90
18974;DHT22;9621;48.690;9.466;2024-01-30T00:17:35;-2.60;99.90
18974;DHT22;9621;48.690;9.466;2024-01-30T00:20:03;-2.60;99.90
18974;DHT22;9621;48.690;9.466;2024-01-30T00:22:31;-2.60;99.90
18974;DHT22;9621;48.690;9.466;2024-01-30T00:24:58;-2.70;99.90
18974;DHT22;9621;48.690;9.466;2024-01-30T00:27:26;-2.70;99.90
18974;DHT22;9621;48.690;9.466;2024-01-30T00:29:53;-2.60;99.90
18974;DHT22;9621;48.690;9.466;2024-01-30T00:32:20;-2.70;99.90
18974;DHT22;9621;48.690;9.466;2024-01-30T00:34:48;-2.60;99.90
18974;DHT22;9621;48.690;9.466;2024-01-30T00:37:15;-2.70;99.90
18974;DHT22;9621;48.690;9.466;2024-01-30T00:39:42;-2.70;99.90
18974;DHT22;9621;48.690;9.466;2024-01-30T00:42:09;-2.50;99.90
18974;DHT22;9621;48.690;9.466;2024-01-30T00:44:38;-2.60;99.90
18974;DHT22;9621;48.690;9.466;2024-01-30T00:47:05;-2.50;99.90
18974;DHT22;9621;48.690;9.466;2024-01-30T00:49:34;-2.60;99.90
18974;DHT22;9621;48.690;9.466;2024-01-30T00:52:01;-2.50;99.90
18974;DHT22;9621;48.690;9.466;2024-01-30T00:54:28;-2.60;99.90
18974;DHT22;9621;48.690;9.466;2024-01-30T00:56:55;-2.40;99.90
18974;DHT22;9621;48.690;9.466;2024-01-30T00:59:22;-2.60;99.90
18974;DHT22;9621;48.690;9.466;2024-01-30T01:01:50;-2.60;99.90
18974;DHT22;9621;48.690;9.466;2024-01-30T01:04:17;-2.60;99.90
18974;DHT22;9621;48.690;9.466;2024-01-30T01:06:44;-2.60;99.90
18974;DHT22;9621;48.690;9.466;2024-01-30T01:09:11;-2.60;99.90
18974;DHT22;9621;48.690;9.466;2024-01-30T01:11:38;-2.50;99.90
18974;DHT22;9621;48.690;9.466;2024-01-30T01:14:05;-2.50;99.90
18974;DHT22;9621;48.690;9.466;2024-01-30T01:16:33;-2.50;99.90
18974;DHT22;9621;48.690;9.466;2024-01-30T01:19:02;-2.50;99.90
18974;DHT22;9621;48.690;9.466;2024-01-30T01:21:30;-2.40;99.90
18974;DHT22;9621;48.690;9.466;2024-01-30T01:23:58;-2.50;99.90
18974;DHT22;9621;48.690;9.466;2024-01-30T01:26:25;-2.50;99.90
18974;DHT22;9621;48.690;9.466;2024-01-30T01:28:52;-2.50;99.90
18974;DHT22;9621;48.690;9.466;2024-01-30T01:31:18;-2.50;99.90
18974;DHT22;9621;48.690;9.466;2024-01-30T01:33:50;-2.60;99.90
18974;DHT22;9621;48.690;9.466;2024-01-30T01:36:18;-2.60;99.90
18974;DHT22;9621;48.690;9.466;2024-01-30T01:38:45;-2.60;99.90
18974;DHT22;9621;48.690;9.466;2024-01-30T01:41:12;-2.60;99.90
18974;DHT22;9621;48.690;9.466;2024-01-30T01:43:39;-2.60;99.90
18974;DHT22;9621;48.690;9.466;2024-01-30T01:46:06;-2.40;99.90
18974;DHT22;9621;48.690;9.466;2024-01-30T01:48:33;-2.50;99.90
18974;DHT22;9621;48.690;9.466;2024-01-30T01:51:00;-2.50;99.90
18974;DHT22;9621;48.690;9.466;2024-01-30T01:53:29;-2.40;99.90
18974;DHT22;9621;48.690;9.466;2024-01-30T01:55:56;-2.50;99.90
18974;DHT22;9621;48.690;9.466;2024-01-30T01:58:27;-2.50;99.90
18974;DHT22;9621;48.690;9.466;2024-01-30T02:00:56;-2.50;99.90
18974;DHT22;9621;48.690;9.466;2024-01-30T02:03:23;-2.50;99.90
18974;DHT22;9621;48.690;9.466;2024-01-30T02:05:50;-2.50;99.90
18974;DHT22;9621;48.690;9.466;2024-01-30T02:08:18;-2.50;99.90
18974;DHT22;9621;48.690;9.466;2024-01-30T02:10:46;-2.50;99.90
18974;DHT22;9621;48.690;9.466;2024-01-30T02:13:13;-2.50;99.90
18974;DHT22;9621;48.690;9.466;2024-01-30T02:15:40;-2.50;99.90
18974;DHT22;9621;48.690;9.466;2024-01-30T02:18:07;-2.30;99.90
18974;DHT22;9621;48.690;9.466;2024-01-30T02:20:35;-2.40;99.90
18974;DHT22;9621;48.690;9.466;2024-01-30T02:23:05;-2.40;99.90
18974;DHT22;9621;48.690;9.466;2024-01-30T02:25:36;-2.40;99.90
18974;DHT22;9621;48.690;9.466;2024-01-30T02:28:04;-2.40;99.90
18974;DHT22;9621;48.690;9.466;2024-01-30T02:30:31;-2.30;99.90
18974;DHT22;9621;48.690;9.466;2024-01-30T02:32:57;-2.40;99.90
18974;DHT22;9621;48.690;9.466;2024-01-30T02:35:24;-2.30;99.90
18974;DHT22;9621;48.690;9.466;2024-01-30T02:37:51;-2.30;99.90
18974;DHT22;9621;48.690;9.466;2024-01-30T02:40:19;-2.30;99.90
18974;DHT22;9621;48.690;9.466;2024-01-30T02:42:46;-2.20;99.90
18974;DHT22;9621;48.690;9.466;2024-01-30T02:45:13;-2.30;99.90
18974;DHT22;9621;48.690;9.466;2024-01-30T02:47:40;-2.30;99.90
18974;DHT22;9621;48.690;9.466;2024-01-30T02:50:08;-2.30;99.90
18974;DHT22;9621;48.690;9.466;2024-01-30T02:52:35;-2.30;99.90
18974;DHT22;9621;48.690;9.466;2024-01-30T02:55:02;-2.30;99.90
18974;DHT22;9621;48.690;9.466;2024-01-30T02:57:30;-2.30;99.90
18974;DHT22;9621;48.690;9.466;2024-01-30T02:59:57;-2.40;99.90
18974;DHT22;9621;48.690;9.466;2024-01-30T03:02:24;-2.40;99.90
18974;DHT22;9621;48.690;9.466;2024-01-30T03:04:51;-2.40;99.90
18974;DHT22;9621;48.690;9.466;2024-01-30T03:07:18;-2.40;99.90
18974;DHT22;9621;48.690;9.466;2024-01-30T03:09:45;-2.40;99.90
18974;DHT22;9621;48.690;9.466;2024-01-30T03:12:12;-2.50;99.90
18974;DHT22;9621;48.690;9.466;2024-01-30T03:14:40;-2.50;99.90
18974;DHT22;9621;48.690;9.466;2024-01-30T03:17:07;-2.50;99.90
18974;DHT22;9621;48.690;9.466;2024-01-30T03:19:34;-2.50;99.90
18974;DHT22;9621;48.690;9.466;2024-01-30T03:22:01;-2.60;99.90
18974;DHT22;9621;48.690;9.466;2024-01-30T03:24:28;-2.60;99.90
18974;DHT22;9621;48.690;9.466;2024-01-30T03:26:55;-2.60;99.90
18974;DHT22;9621;48.690;9.466;2024-01-30T03:29:22;-2.60;99.90
18974;DHT22;9621;48.690;9.466;2024-01-30T03:31:50;-2.70;99.90
18974;DHT22;9621;48.690;9.466;2024-01-30T03:34:17;-2.70;99.90
18974;DHT22;9621;48.690;9.466;2024-01-30T03:36:44;-2.70;99.90
18974;DHT22;9621;48.690;9.466;2024-01-30T03:39:11;-2.70;99.90
18974;DHT22;9621;48.690;9.466;2024-01-30T03:41:38;-2.80;99.90
18974;DHT22;9621;48.690;9.466;2024-01-30T03:44:06;-2.90;99.90
18974;DHT22;9621;48.690;9.466;2024-01-30T03:46:33;-2.90;99.90
18974;DHT22;9621;48.690;9.466;2024-01-30T03:49:01;-2.80;99.90
18974;DHT22;9621;48.690;9.466;2024-01-30T03:51:28;-3.00;99.90
18974;DHT22;9621;48.690;9.466;2024-01-30T03:53:55;-3.00;99.90
18974;DHT22;9621;48.690;9.466;2024-01-30T03:56:22;-3.10;99.90
18974;DHT22;9621;48.690;9.466;2024-01-30T03:58:51;-3.00;99.90
18974;DHT22;9621;48.690;9.466;2024-01-30T04:01:18;-3.10;99.90
18974;DHT22;9621;48.690;9.466;2024-01-30T04:03:45;-3.10;99.90
18974;DHT22;9621;48.690;9.466;2024-01-30T04:06:14;-3.20;99.90
18974;DHT22;9621;48.690;9.466;2024-01-30T04:08:40;-3.10;99.90
18974;DHT22;9621;48.690;9.466;2024-01-30T04:11:07;-3.20;99.90
18974;DHT22;9621;48.690;9.466;2024-01-30T04:13:34;-3.20;99.90
18974;DHT22;9621;48.690;9.466;2024-01-30T04:16:01;-3.20;99.90
18974;DHT22;9621;48.690;9.466;2024-01-30T04:18:29;-3.30;99.90
18974;DHT22;9621;48.690;9.466;2024-01-30T04:20:56;-3.30;99.90
18974;DHT22;9621;48.690;9.466;2024-01-30T04:23:24;-3.30;99.90
18974;DHT22;9621;48.690;9.466;2024-01-30T04:25:51;-3.40;99.90
18974;DHT22;9621;48.690;9.466;2024-01-30T04:28:18;-3.40;99.90
18974;DHT22;9621;48.690;9.466;2024-01-30T04:30:45;-3.40;99.90
18974;DHT22;9621;48.690;9.466;2024-01-30T04:33:12;-3.30;99.90
18974;DHT22;9621;48.690;9.466;2024-01-30T04:35:39;-3.40;99.90
18974;DHT22;9621;48.690;9.466;2024-01-30T04:38:05;-3.40;99.90
18974;DHT22;9621;48.690;9.466;2024-01-30T04:40:34;-3.40;99.90
18974;DHT22;9621;48.690;9.466;2024-01-30T04:43:01;-3.40;99.90
18974;DHT22;9621;48.690;9.466;2024-01-30T04:45:27;-3.40;99.90
18974;DHT22;9621;48.690;9.466;2024-01-30T04:47:54;-3.30;99.90
18974;DHT22;9621;48.690;9.466;2024-01-30T04:50:21;-3.40;99.90
18974;DHT22;9621;48.690;9.466;2024-01-30T04:52:48;-3.50;99.90
18974;DHT22;9621;48.690;9.466;2024-01-30T04:55:15;-3.50;99.90
18974;DHT22;9621;48.690;9.466;2024-01-30T04:57:43;-3.50;99.90
18974;DHT22;9621;48.690;9.466;2024-01-30T05:00:11;-3.50;99.90
18974;DHT22;9621;48.690;9.466;2024-01-30T05:02:38;-3.50;99.90
18974;DHT22;9621;48.690;9.466;2024-01-30T05:05:05;-3.50;99.90
18974;DHT22;9621;48.690;9.466;2024-01-30T05:07:32;-3.50;99.90
18974;DHT22;9621;48.690;9.466;2024-01-30T05:09:59;-3.50;99.90
18974;DHT22;9621;48.690;9.466;2024-01-30T05:12:26;-3.60;99.90
18974;DHT22;9621;48.690;9.466;2024-01-30T05:14:54;-3.60;99.90
18974;DHT22;9621;48.690;9.466;2024-01-30T05:17:21;-3.30;99.90
18974;DHT22;9621;48.690;9.466;2024-01-30T05:19:48;-3.60;99.90
18974;DHT22;9621;48.690;9.466;2024-01-30T05:22:15;-3.60;99.90
18974;DHT22;9621;48.690;9.466;2024-01-30T05:24:44;-3.60;99.90
18974;DHT22;9621;48.690;9.466;2024-01-30T05:27:11;-3.60;99.90
18974;DHT22;9621;48.690;9.466;2024-01-30T05:29:39;-3.60;99.90
18974;DHT22;9621;48.690;9.466;2024-01-30T05:32:07;-3.60;99.90
18974;DHT22;9621;48.690;9.466;2024-01-30T05:34:35;-3.60;99.90
18974;DHT22;9621;48.690;9.466;2024-01-30T05:37:03;-3.60;99.90
18974;DHT22;9621;48.690;9.466;2024-01-30T05:39:30;-3.60;99.90
18974;DHT22;9621;48.690;9.466;2024-01-30T05:41:58;-3.60;99.90
18974;DHT22;9621;48.690;9.466;2024-01-30T05:44:25;-3.60;99.90
18974;DHT22;9621;48.690;9.466;2024-01-30T05:46:52;-3.70;99.90
18974;DHT22;9621;48.690;9.466;2024-01-30T05:49:20;-3.40;99.90
18974;DHT22;9621;48.690;9.466;2024-01-30T05:51:47;-3.60;99.90
18974;DHT22;9621;48.690;9.466;2024-01-30T05:54:14;-3.60;99.90
18974;DHT22;9621;48.690;9.466;2024-01-30T05:56:41;-3.60;99.90
18974;DHT22;9621;48.690;9.466;2024-01-30T05:59:08;-3.70;99.90
18974;DHT22;9621;48.690;9.466;2024-01-30T06:01:36;-3.60;99.90
18974;DHT22;9621;48.690;9.466;2024-01-30T06:04:03;-3.70;99.90
18974;DHT22;9621;48.690;9.466;2024-01-30T06:06:31;-3.70;99.90
18974;DHT22;9621;48.690;9.466;2024-01-30T06:08:58;-3.70;99.90
18974;DHT22;9621;48.690;9.466;2024-01-30T06:11:25;-3.70;99.90
18974;DHT22;9621;48.690;9.466;2024-01-30T06:13:52;-3.70;99.90
18974;DHT22;9621;48.690;9.466;2024-01-30T06:16:19;-3.70;99.90
18974;DHT22;9621;48.690;9.466;2024-01-30T06:18:46;-3.60;99.90
18974;DHT22;9621;48.690;9.466;2024-01-30T06:21:13;-3.60;99.90
18974;DHT22;9621;48.690;9.466;2024-01-30T06:23:42;-3.60;99.90
18974;DHT22;9621;48.690;9.466;2024-01-30T06:26:08;-3.60;99.90
18974;DHT22;9621;48.690;9.466;2024-01-30T06:28:36;-3.50;99.90
18974;DHT22;9621;48.690;9.466;2024-01-30T06:31:03;-3.60;99.90
18974;DHT22;9621;48.690;9.466;2024-01-30T06:33:30;-3.50;99.90
18974;DHT22;9621;48.690;9.466;2024-01-30T06:35:56;-3.40;99.90
18974;DHT22;9621;48.690;9.466;2024-01-30T06:38:23;-3.50;99.90
18974;DHT22;9621;48.690;9.466;2024-01-30T06:40:52;-3.50;99.90
18974;DHT22;9621;48.690;9.466;2024-01-30T06:43:18;-3.50;99.90
18974;DHT22;9621;48.690;9.466;2024-01-30T06:45:45;-3.50;99.90
18974;DHT22;9621;48.690;9.466;2024-01-30T06:48:12;-3.50;99.90
18974;DHT22;9621;48.690;9.466;2024-01-30T06:50:39;-3.40;99.90
18974;DHT22;9621;48.690;9.466;2024-01-30T06:53:06;-3.30;99.90
18974;DHT22;9621;48.690;9.466;2024-01-30T06:55:33;-3.40;99.90
18974;DHT22;9621;48.690;9.466;2024-01-30T06:58:01;-3.40;99.90
18974;DHT22;9621;48.690;9.466;2024-01-30T07:00:28;-3.30;99.90
18974;DHT22;9621;48.690;9.466;2024-01-30T07:02:55;-3.30;99.90
18974;DHT22;9621;48.690;9.466;2024-01-30T07:05:22;-3.30;99.90
18974;DHT22;9621;48.690;9.466;2024-01-30T07:07:49;-3.30;99.90
18974;DHT22;9621;48.690;9.466;2024-01-30T07:10:16;-3.30;99.90
18974;DHT22;9621;48.690;9.466;2024-01-30T07:12:43;-3.20;99.90
18974;DHT22;9621;48.690;9.466;2024-01-30T07:15:12;-3.20;99.90
18974;DHT22;9621;48.690;9.466;2024-01-30T07:17:42;-3.20;99.90
18974;DHT22;9621;48.690;9.466;2024-01-30T07:20:09;-3.00;99.90
18974;DHT22;9621;48.690;9.466;2024-01-30T07:22:36;-3.10;99.90
18974;DHT22;9621;48.690;9.466;2024-01-30T07:25:04;-3.00;99.90
18974;DHT22;9621;48.690;9.466;2024-01-30T07:27:31;-2.90;99.90
18974;DHT22;9621;48.690;9.466;2024-01-30T07:29:59;-2.80;99.90
18974;DHT22;9621;48.690;9.466;2024-01-30T07:32:27;-2.50;99.90
18974;DHT22;9621;48.690;9.466;2024-01-30T07:34:54;-2.30;99.90
18974;DHT22;9621;48.690;9.466;2024-01-30T07:37:21;-2.10;99.90
18974;DHT22;9621;48.690;9.466;2024-01-30T07:39:48;-1.90;99.90
18974;DHT22;9621;48.690;9.466;2024-01-30T07:42:14;-1.70;99.90
18974;DHT22;9621;48.690;9.466;2024-01-30T07:44:43;-1.60;99.90
18974;DHT22;9621;48.690;9.466;2024-01-30T07:47:09;-1.40;99.90
18974;DHT22;9621;48.690;9.466;2024-01-30T07:49:38;-1.30;99.90
18974;DHT22;9621;48.690;9.466;2024-01-30T07:52:05;-1.30;99.90
18974;DHT22;9621;48.690;9.466;2024-01-30T07:54:32;-1.20;99.90
18974;DHT22;9621;48.690;9.466;2024-01-30T07:57:00;-1.10;99.90
18974;DHT22;9621;48.690;9.466;2024-01-30T07:59:27;-1.00;99.90
18974;DHT22;9621;48.690;9.466;2024-01-30T08:01:55;-0.90;99.90
18974;DHT22;9621;48.690;9.466;2024-01-30T08:04:25;-0.90;99.90
18974;DHT22;9621;48.690;9.466;2024-01-30T08:06:53;-0.70;99.90
18974;DHT22;9621;48.690;9.466;2024-01-30T08:09:20;-0.50;99.90
18974;DHT22;9621;48.690;9.466;2024-01-30T08:11:47;-0.30;99.90
18974;DHT22;9621;48.690;9.466;2024-01-30T08:14:14;0.00;99.90
18974;DHT22;9621;48.690;9.466;2024-01-30T08:16:41;0.30;99.90
18974;DHT22;9621;48.690;9.466;2024-01-30T08:19:08;0.60;99.90
18974;DHT22;9621;48.690;9.466;2024-01-30T08:21:35;0.80;99.90
18974;DHT22;9621;48.690;9.466;2024-01-30T08:24:04;1.00;99.90
18974;DHT22;9621;48.690;9.466;2024-01-30T08:26:31;1.20;99.90
18974;DHT22;9621;48.690;9.466;2024-01-30T08:28:58;1.30;99.90
18974;DHT22;9621;48.690;9.466;2024-01-30T08:31:25;1.50;99.90
18974;DHT22;9621;48.690;9.466;2024-01-30T08:33:52;1.60;99.90
18974;DHT22;9621;48.690;9.466;2024-01-30T08:36:19;1.80;99.90
18974;DHT22;9621;48.690;9.466;2024-01-30T08:38:46;2.00;99.90
18974;DHT22;9621;48.690;9.466;2024-01-30T08:41:14;2.20;99.90
18974;DHT22;9621;48.690;9.466;2024-01-30T08:43:41;2.50;99.90
18974;DHT22;9621;48.690;9.466;2024-01-30T08:46:10;2.70;99.90
18974;DHT22;9621;48.690;9.466;2024-01-30T08:48:37;3.00;99.90
18974;DHT22;9621;48.690;9.466;2024-01-30T08:51:04;3.20;99.90
18974;DHT22;9621;48.690;9.466;2024-01-30T08:53:34;3.40;99.90
18974;DHT22;9621;48.690;9.466;2024-01-30T08:56:02;3.50;99.90
18974;DHT22;9621;48.690;9.466;2024-01-30T08:58:30;3.70;99.90
18974;DHT22;9621;48.690;9.466;2024-01-30T09:00:58;3.80;99.90
18974;DHT22;9621;48.690;9.466;2024-01-30T09:03:25;4.00;99.90
18974;DHT22;9621;48.690;9.466;2024-01-30T09:05:53;4.10;99.90
18974;DHT22;9621;48.690;9.466;2024-01-30T09:08:20;4.30;99.90
18974;DHT22;9621;48.690;9.466;2024-01-30T09:10:47;4.50;99.90
18974;DHT22;9621;48.690;9.466;2024-01-30T09:13:15;4.60;99.90
18974;DHT22;9621;48.690;9.466;2024-01-30T09:15:43;4.80;99.90
18974;DHT22;9621;48.690;9.466;2024-01-30T09:18:10;4.90;99.90
18974;DHT22;9621;48.690;9.466;2024-01-30T09:20:37;5.00;99.90
18974;DHT22;9621;48.690;9.466;2024-01-30T09:23:04;5.10;99.90
18974;DHT22;9621;48.690;9.466;2024-01-30T09:25:31;5.30;99.90
18974;DHT22;9621;48.690;9.466;2024-01-30T09:27:59;5.40;99.90
18974;DHT22;9621;48.690;9.466;2024-01-30T09:30:26;5.60;99.90
18974;DHT22;9621;48.690;9.466;2024-01-30T09:32:54;5.80;99.90
18974;DHT22;9621;48.690;9.466;2024-01-30T09:35:21;6.00;99.90
18974;DHT22;9621;48.690;9.466;2024-01-30T09:37:48;6.20;99.90
18974;DHT22;9621;48.690;9.466;2024-01-30T09:40:15;6.40;99.90
18974;DHT22;9621;48.690;9.466;2024-01-30T09:42:47;6.60;99.90
18974;DHT22;9621;48.690;9.466;2024-01-30T09:45:14;6.80;99.90
18974;DHT22;9621;48.690;9.466;2024-01-30T09:47:44;6.90;99.90
18974;DHT22;9621;48.690;9.466;2024-01-30T09:50:14;7.10;99.90
18974;DHT22;9621;48.690;9.466;2024-01-30T09:52:42;7.30;99.90
18974;DHT22;9621;48.690;9.466;2024-01-30T09:55:10;7.40;99.90
18974;DHT22;9621;48.690;9.466;2024-01-30T09:57:37;7.40;99.90
18974;DHT22;9621;48.690;9.466;2024-01-30T10:00:09;7.50;99.90
18974;DHT22;9621;48.690;9.466;2024-01-30T10:02:36;7.60;99.90
18974;DHT22;9621;48.690;9.466;2024-01-30T10:05:04;7.80;99.90
18974;DHT22;9621;48.690;9.466;2024-01-30T10:07:32;8.00;99.90
18974;DHT22;9621;48.690;9.466;2024-01-30T10:09:59;8.20;99.90
18974;DHT22;9621;48.690;9.466;2024-01-30T10:12:27;8.50;99.90
18974;DHT22;9621;48.690;9.466;2024-01-30T10:14:56;8.70;99.90
18974;DHT22;9621;48.690;9.466;2024-01-30T10:17:25;8.90;99.90
18974;DHT22;9621;48.690;9.466;2024-01-30T10:19:52;9.10;99.90
18974;DHT22;9621;48.690;9.466;2024-01-30T10:22:19;9.20;99.90
18974;DHT22;9621;48.690;9.466;2024-01-30T10:24:48;9.40;99.90
18974;DHT22;9621;48.690;9.466;2024-01-30T10:27:15;9.50;99.90
18974;DHT22;9621;48.690;9.466;2024-01-30T10:29:42;9.60;99.90
18974;DHT22;9621;48.690;9.466;2024-01-30T10:32:09;9.70;99.90
18974;DHT22;9621;48.690;9.466;2024-01-30T10:34:36;9.80;99.90
18974;DHT22;9621;48.690;9.466;2024-01-30T10:37:07;10.00;99.90
18974;DHT22;9621;48.690;9.466;2024-01-30T10:39:38;10.20;99.90
18974;DHT22;9621;48.690;9.466;2024-01-30T10:42:12;10.30;99.90
18974;DHT22;9621;48.690;9.466;2024-01-30T10:44:46;10.40;99.90
18974;DHT22;9621;48.690;9.466;2024-01-30T10:47:20;10.50;99.90
18974;DHT22;9621;48.690;9.466;2024-01-30T10:49:49;10.60;99.90
18974;DHT22;9621;48.690;9.466;2024-01-30T10:52:17;10.70;99.90
18974;DHT22;9621;48.690;9.466;2024-01-30T10:54:45;10.80;99.90
18974;DHT22;9621;48.690;9.466;2024-01-30T10:57:15;10.80;99.90
18974;DHT22;9621;48.690;9.466;2024-01-30T10:59:43;10.80;99.90
18974;DHT22;9621;48.690;9.466;2024-01-30T11:02:11;10.80;99.90
18974;DHT22;9621;48.690;9.466;2024-01-30T11:04:38;10.70;99.90
18974;DHT22;9621;48.690;9.466;2024-01-30T11:07:14;10.70;99.90
18974;DHT22;9621;48.690;9.466;2024-01-30T11:09:48;10.60;99.90
18974;DHT22;9621;48.690;9.466;2024-01-30T11:12:21;10.50;99.90
18974;DHT22;9621;48.690;9.466;2024-01-30T11:14:49;10.50;99.90
18974;DHT22;9621;48.690;9.466;2024-01-30T11:17:16;10.40;99.90
18974;DHT22;9621;48.690;9.466;2024-01-30T11:19:43;10.40;99.90
18974;DHT22;9621;48.690;9.466;2024-01-30T11:22:11;10.30;99.90
18974;DHT22;9621;48.690;9.466;2024-01-30T11:24:39;10.30;99.90
18974;DHT22;9621;48.690;9.466;2024-01-30T11:27:09;10.30;99.90
18974;DHT22;9621;48.690;9.466;2024-01-30T11:29:37;10.20;99.90
18974;DHT22;9621;48.690;9.466;2024-01-30T11:32:04;10.20;99.90
18974;DHT22;9621;48.690;9.466;2024-01-30T11:34:32;10.10;99.90
18974;DHT22;9621;48.690;9.466;2024-01-30T11:37:04;10.00;99.90
18974;DHT22;9621;48.690;9.466;2024-01-30T11:39:36;10.00;99.90
18974;DHT22;9621;48.690;9.466;2024-01-30T11:42:04;10.00;99.90
18974;DHT22;9621;48.690;9.466;2024-01-30T11:44:31;10.10;99.90
18974;DHT22;9621;48.690;9.466;2024-01-30T11:46:59;10.10;99.90
18974;DHT22;9621;48.690;9.466;2024-01-30T11:49:29;10.20;99.90
18974;DHT22;9621;48.690;9.466;2024-01-30T11:51:56;10.30;99.90
18974;DHT22;9621;48.690;9.466;2024-01-30T11:54:23;10.40;99.90
18974;DHT22;9621;48.690;9.466;2024-01-30T11:56:49;10.30;99.90
18974;DHT22;9621;48.690;9.466;2024-01-30T11:59:16;10.50;99.90
18974;DHT22;9621;48.690;9.466;2024-01-30T12:01:43;10.50;99.90
18974;DHT22;9621;48.690;9.466;2024-01-30T12:04:12;10.60;99.90
18974;DHT22;9621;48.690;9.466;2024-01-30T12:06:39;10.60;99.90
18974;DHT22;9621;48.690;9.466;2024-01-30T12:09:07;10.60;99.90
18974;DHT22;9621;48.690;9.466;2024-01-30T12:11:43;10.70;99.90
18974;DHT22;9621;48.690;9.466;2024-01-30T12:14:11;10.80;99.90
18974;DHT22;9621;48.690;9.466;2024-01-30T12:16:39;10.80;99.90
18974;DHT22;9621;48.690;9.466;2024-01-30T12:19:07;10.90;99.90
18974;DHT22;9621;48.690;9.466;2024-01-30T12:21:35;10.80;99.90
18974;DHT22;9621;48.690;9.466;2024-01-30T12:24:03;10.80;99.90
18974;DHT22;9621;48.690;9.466;2024-01-30T12:26:30;10.80;99.90
18974;DHT22;9621;48.690;9.466;2024-01-30T12:28:57;10.80;99.90
18974;DHT22;9621;48.690;9.466;2024-01-30T12:31:27;10.90;99.90
18974;DHT22;9621;48.690;9.466;2024-01-30T12:33:54;10.80;99.90
18974;DHT22;9621;48.690;9.466;2024-01-30T12:36:22;10.80;99.90
18974;DHT22;9621;48.690;9.466;2024-01-30T12:38:51;10.80;99.90
18974;DHT22;9621;48.690;9.466;2024-01-30T12:41:19;10.70;99.90
18974;DHT22;9621;48.690;9.466;2024-01-30T12:43:46;10.60;99.90
18974;DHT22;9621;48.690;9.466;2024-01-30T12:46:16;10.50;99.90
18974;DHT22;9621;48.690;9.466;2024-01-30T12:48:43;10.50;99.90
18974;DHT22;9621;48.690;9.466;2024-01-30T12:51:10;10.50;99.90
18974;DHT22;9621;48.690;9.466;2024-01-30T12:53:37;10.50;99.90
18974;DHT22;9621;48.690;9.466;2024-01-30T12:56:05;10.40;99.90
18974;DHT22;9621;48.690;9.466;2024-01-30T12:58:32;10.50;99.90
18974;DHT22;9621;48.690;9.466;2024-01-30T13:00:59;10.50;99.90
18974;DHT22;9621;48.690;9.466;2024-01-30T13:03:26;10.50;99.90
18974;DHT22;9621;48.690;9.466;2024-01-30T13:05:53;10.50;99.90
18974;DHT22;9621;48.690;9.466;2024-01-30T13:08:21;10.50;99.90
18974;DHT22;9621;48.690;9.466;2024-01-30T13:10:48;10.50;99.90
18974;DHT22;9621;48.690;9.466;2024-01-30T13:13:16;10.50;99.90
18974;DHT22;9621;48.690;9.466;2024-01-30T13:15:43;10.50;99.90
18974;DHT22;9621;48.690;9.466;2024-01-30T13:18:10;10.60;99.90
18974;DHT22;9621;48.690;9.466;2024-01-30T13:20:37;10.70;99.90
18974;DHT22;9621;48.690;9.466;2024-01-30T13:23:04;10.80;99.90
18974;DHT22;9621;48.690;9.466;2024-01-30T13:25:31;11.00;99.90
18974;DHT22;9621;48.690;9.466;2024-01-30T13:27:58;11.20;99.90
18974;DHT22;9621;48.690;9.466;2024-01-30T13:30:26;11.40;99.90
18974;DHT22;9621;48.690;9.466;2024-01-30T13:32:53;11.50;99.90
18974;DHT22;9621;48.690;9.466;2024-01-30T13:35:20;11.60;99.90
18974;DHT22;9621;48.690;9.466;2024-01-30T13:37:47;11.70;99.90
18974;DHT22;9621;48.690;9.466;2024-01-30T13:40:14;11.70;99.90
18974;DHT22;9621;48.690;9.466;2024-01-30T13:42:42;11.70;99.90
18974;DHT22;9621;48.690;9.466;2024-01-30T13:45:09;11.70;99.90
18974;DHT22;9621;48.690;9.466;2024-01-30T13:47:37;11.70;99.90
18974;DHT22;9621;48.690;9.466;2024-01-30T13:50:05;11.60;99.90
18974;DHT22;9621;48.690;9.466;2024-01-30T13:52:33;11.60;99.90
18974;DHT22;9621;48.690;9.466;2024-01-30T13:55:00;11.60;99.90
18974;DHT22;9621;48.690;9.466;2024-01-30T13:57:27;11.60;99.90
18974;DHT22;9621;48.690;9.466;2024-01-30T13:59:54;11.60;99.90
18974;DHT22;9621;48.690;9.466;2024-01-30T14:02:22;11.60;99.90
18974;DHT22;9621;48.690;9.466;2024-01-30T14:04:51;11.50;99.90
18974;DHT22;9621;48.690;9.466;2024-01-30T14:07:18;11.50;99.90
18974;DHT22;9621;48.690;9.466;2024-01-30T14:09:44;11.50;99.90
18974;DHT22;9621;48.690;9.466;2024-01-30T14:12:11;11.40;99.90
18974;DHT22;9621;48.690;9.466;2024-01-30T14:14:38;11.30;99.90
18974;DHT22;9621;48.690;9.466;2024-01-30T14:17:05;11.30;99.90
18974;DHT22;9621;48.690;9.466;2024-01-30T14:19:33;11.20;99.90
18974;DHT22;9621;48.690;9.466;2024-01-30T14:22:01;11.10;99.90
18974;DHT22;9621;48.690;9.466;2024-01-30T14:24:28;11.00;99.90
18974;DHT22;9621;48.690;9.466;2024-01-30T14:26:55;10.90;99.90
18974;DHT22;9621;48.690;9.466;2024-01-30T14:29:22;10.80;99.90
18974;DHT22;9621;48.690;9.466;2024-01-30T14:31:48;10.80;99.90
18974;DHT22;9621;48.690;9.466;2024-01-30T14:34:16;10.70;99.90
18974;DHT22;9621;48.690;9.466;2024-01-30T14:36:44;10.60;99.90
18974;DHT22;9621;48.690;9.466;2024-01-30T14:39:12;10.60;99.90
18974;DHT22;9621;48.690;9.466;2024-01-30T14:41:40;10.60;99.90
18974;DHT22;9621;48.690;9.466;2024-01-30T14:44:07;10.60;99.90
18974;DHT22;9621;48.690;9.466;2024-01-30T14:46:35;10.50;99.90
18974;DHT22;9621;48.690;9.466;2024-01-30T14:49:02;10.50;99.90
18974;DHT22;9621;48.690;9.466;2024-01-30T14:51:31;10.50;99.90
18974;DHT22;9621;48.690;9.466;2024-01-30T14:53:58;10.40;99.90
18974;DHT22;9621;48.690;9.466;2024-01-30T14:56:27;10.30;99.90
18974;DHT22;9621;48.690;9.466;2024-01-30T14:58:54;10.20;99.90
18974;DHT22;9621;48.690;9.466;2024-01-30T15:01:22;10.20;99.90
18974;DHT22;9621;48.690;9.466;2024-01-30T15:03:48;10.10;99.90
18974;DHT22;9621;48.690;9.466;2024-01-30T15:06:17;10.00;99.90
18974;DHT22;9621;48.690;9.466;2024-01-30T15:08:44;9.90;99.90
18974;DHT22;9621;48.690;9.466;2024-01-30T15:11:11;9.80;99.90
18974;DHT22;9621;48.690;9.466;2024-01-30T15:13:40;9.70;99.90
18974;DHT22;9621;48.690;9.466;2024-01-30T15:16:07;9.70;99.90
18974;DHT22;9621;48.690;9.466;2024-01-30T15:18:34;9.50;99.90
18974;DHT22;9621;48.690;9.466;2024-01-30T15:21:01;9.40;99.90
18974;DHT22;9621;48.690;9.466;2024-01-30T15:23:28;9.30;99.90
18974;DHT22;9621;48.690;9.466;2024-01-30T15:25:56;9.30;99.90
18974;DHT22;9621;48.690;9.466;2024-01-30T15:28:34;9.10;99.90
18974;DHT22;9621;48.690;9.466;2024-01-30T15:31:04;9.00;99.90
18974;DHT22;9621;48.690;9.466;2024-01-30T15:33:32;8.90;99.90
18974;DHT22;9621;48.690;9.466;2024-01-30T15:35:59;8.80;99.90
18974;DHT22;9621;48.690;9.466;2024-01-30T15:38:26;8.60;99.90
18974;DHT22;9621;48.690;9.466;2024-01-30T15:40:54;8.60;99.90
18974;DHT22;9621;48.690;9.466;2024-01-30T15:43:21;8.40;99.90
18974;DHT22;9621;48.690;9.466;2024-01-30T15:45:49;8.30;99.90
18974;DHT22;9621;48.690;9.466;2024-01-30T15:48:18;8.30;99.90
18974;DHT22;9621;48.690;9.466;2024-01-30T15:50:45;8.10;99.90